Airfield :
LOGIN :

Register | Disclaimer

   EN    FR    IT 

 










Legend :    VFR   Marginal VFR   IFR   Intensive IFR   Very Intensive IFR
Visi :
Ceiling :
>= 8 km
>= 3000ft
5 to 8 km
1000 to 3000 ft
1500m to 5 km
500 to 1000 ft
800 to 1500m
200 to 500 ft
< 800m
< 200 ft
Symbols :   Thunderstorms  Fog  Heavy snow  Heavy precipitations  Wind > 20 kt
SIGMETs :     Misc.  Thunderstorms  Icing  Turbulence  Mountain Waves  Volcanic Ashes






- Airport Elevation : 302 ft


LFPM - Melun Villaroche

CURRENT METAR :
  • 180500Z AUTO 13002KT 9000 -RA ///CB 16/16 Q1011

EXPIRED METARs :
  • 180430Z AUTO VRB03KT CAVOK 16/16 Q1011
  • 180400Z AUTO 04004KT 360V080 CAVOK 16/16 Q1011
  • 180330Z AUTO VRB02KT CAVOK 16/15 Q1011
  • 180300Z AUTO 10004KT CAVOK 16/16 Q1012
  • 180230Z AUTO 08004KT 040V110 CAVOK 15/15 Q1011
  • 180200Z AUTO 07003KT 040V110 CAVOK 15/15 Q1012
  • 180130Z AUTO 06004KT 040V100 CAVOK 15/15 Q1012
  • 180100Z AUTO 07003KT CAVOK 15/15 Q1012
  • 180030Z AUTO 05004KT CAVOK 15/15 Q1012

Expired Forecast.
ATIS : +33 1 64 14 28 44



MET'MAP, your aeronautical weather chart ! - Copyright ORBIFLY December 2007 - Disclaimer

ORBIFLY MET'MAP TEAM :

Programming & Development : Alexandra Zaïnal
Original concept : Baudouin d'Aumeries
Technical & hardware support : Manuel Goepfert
Assistance : Marc-Olivier Méhu




SOURCES & CREDITS :

   NOAA